createdAt,value
2019-05-26T00:00:23.532Z,38.76
2019-05-26T00:02:53.231Z,38.74
2019-05-26T00:05:22.704Z,38.73
2019-05-26T00:07:52.287Z,38.73
2019-05-26T00:10:22.010Z,38.67
2019-05-26T00:12:51.467Z,38.70
2019-05-26T00:15:21.118Z,38.70
2019-05-26T00:17:50.706Z,38.64
2019-05-26T00:20:20.362Z,38.65
2019-05-26T00:22:49.794Z,38.62
2019-05-26T00:25:20.057Z,38.56
2019-05-26T00:27:49.617Z,38.53
2019-05-26T00:30:19.566Z,38.49
2019-05-26T00:32:49.218Z,38.47
2019-05-26T00:35:18.699Z,38.42
2019-05-26T00:37:50.362Z,38.39
2019-05-26T00:40:19.737Z,38.37
2019-05-26T00:42:52.286Z,38.36
2019-05-26T00:45:21.943Z,38.33
2019-05-26T00:47:51.457Z,38.35
2019-05-26T00:50:21.208Z,38.32
2019-05-26T00:52:50.873Z,38.31
2019-05-26T00:55:20.795Z,38.28
2019-05-26T00:57:50.618Z,38.28
2019-05-26T01:00:36.669Z,38.27
2019-05-26T01:03:06.153Z,38.23
2019-05-26T01:05:38.353Z,38.22
2019-05-26T01:08:08.732Z,38.23
2019-05-26T01:10:38.366Z,38.27
2019-05-26T01:13:07.911Z,38.27
2019-05-26T01:15:37.465Z,38.21
2019-05-26T01:18:08.361Z,38.22
2019-05-26T01:20:49.544Z,38.18
2019-05-26T01:23:25.370Z,38.21
2019-05-26T01:25:54.915Z,38.22
2019-05-26T01:28:24.404Z,38.23
2019-05-26T01:30:53.874Z,38.22
2019-05-26T01:33:23.430Z,38.20
2019-05-26T01:35:53.065Z,38.23
2019-05-26T01:38:24.668Z,38.22
2019-05-26T01:40:54.424Z,38.22
2019-05-26T01:43:23.962Z,38.23
2019-05-26T01:45:53.391Z,38.24
2019-05-26T01:48:24.709Z,38.23
2019-05-26T01:50:54.157Z,38.22
2019-05-26T01:53:23.750Z,38.25
2019-05-26T01:55:53.226Z,38.25
2019-05-26T01:58:22.758Z,38.24
2019-05-26T02:00:52.176Z,38.20
2019-05-26T02:03:21.741Z,38.18
2019-05-26T02:05:53.807Z,38.18
2019-05-26T02:08:36.594Z,38.19
2019-05-26T02:10:54.546Z,38.17
2019-05-26T02:13:26.469Z,38.20
2019-05-26T02:15:55.952Z,38.23
2019-05-26T02:18:25.626Z,38.22
2019-05-26T02:20:57.899Z,38.22
2019-05-26T02:23:27.389Z,38.18
2019-05-26T02:25:59.591Z,38.17
2019-05-26T02:28:31.842Z,38.13
2019-05-26T02:31:01.301Z,38.13
2019-05-26T02:33:32.501Z,38.14
2019-05-26T02:36:02.267Z,38.16
2019-05-26T02:38:31.841Z,38.18
2019-05-26T02:41:03.473Z,38.18
2019-05-26T02:43:32.942Z,38.19
2019-05-26T02:46:02.425Z,38.19
2019-05-26T02:48:31.945Z,38.19
2019-05-26T02:51:01.370Z,38.17
2019-05-26T02:53:31.009Z,38.15
2019-05-26T02:56:00.714Z,38.14
2019-05-26T02:58:30.176Z,38.12
2019-05-26T03:01:02.878Z,38.09
2019-05-26T03:03:32.576Z,38.10
2019-05-26T03:06:06.597Z,38.10
2019-05-26T03:08:38.470Z,38.09
2019-05-26T03:11:12.025Z,38.08
2019-05-26T03:13:42.601Z,38.04
2019-05-26T03:16:12.918Z,38.06
2019-05-26T03:18:44.409Z,38.05
2019-05-26T03:21:14.599Z,38.04
2019-05-26T03:23:49.971Z,38.01
2019-05-26T03:26:21.744Z,38.01
2019-05-26T03:28:51.267Z,37.97
2019-05-26T03:31:21.024Z,37.96
2019-05-26T03:33:50.608Z,37.93
2019-05-26T03:36:20.336Z,37.90
2019-05-26T03:38:49.955Z,37.91
2019-05-26T03:41:19.504Z,37.90
2019-05-26T03:43:51.883Z,37.88
2019-05-26T03:46:22.010Z,37.88
2019-05-26T03:48:53.515Z,37.83
2019-05-26T03:51:24.833Z,37.84
2019-05-26T03:53:54.282Z,37.82
2019-05-26T03:56:26.916Z,37.76
2019-05-26T03:58:58.000Z,37.70
2019-05-26T04:01:27.907Z,37.63
2019-05-26T04:04:00.243Z,37.57
2019-05-26T04:06:31.505Z,37.48
2019-05-26T04:09:03.135Z,37.42
2019-05-26T04:11:34.765Z,37.38
2019-05-26T04:14:04.650Z,37.31
2019-05-26T04:16:36.072Z,37.29
2019-05-26T04:19:05.858Z,37.22
2019-05-26T04:21:35.350Z,37.15
2019-05-26T04:24:09.860Z,37.09
2019-05-26T04:26:39.337Z,37.06
2019-05-26T04:29:10.010Z,37.03
2019-05-26T04:31:39.802Z,36.99
2019-05-26T04:34:12.048Z,36.97
2019-05-26T04:36:41.505Z,36.94
2019-05-26T04:39:13.683Z,36.90
2019-05-26T04:41:43.768Z,36.85
2019-05-26T04:44:13.215Z,36.85
2019-05-26T04:46:42.774Z,36.83
2019-05-26T04:49:12.223Z,36.74
2019-05-26T04:51:43.113Z,36.73
2019-05-26T04:54:14.058Z,36.72
2019-05-26T04:56:43.507Z,36.70
2019-05-26T04:59:19.156Z,36.69
2019-05-26T05:01:48.625Z,36.67
2019-05-26T05:04:18.517Z,36.63
2019-05-26T05:06:48.259Z,36.63
2019-05-26T05:09:17.731Z,36.62
2019-05-26T05:11:47.501Z,36.61
2019-05-26T05:14:18.241Z,36.59
2019-05-26T05:16:47.824Z,36.58
2019-05-26T05:19:19.054Z,36.60
2019-05-26T05:21:48.579Z,36.61
2019-05-26T05:24:18.067Z,36.58
2019-05-26T05:26:47.699Z,36.55
2019-05-26T05:29:20.726Z,36.55
2019-05-26T05:31:53.067Z,36.55
2019-05-26T05:34:25.640Z,36.55
2019-05-26T05:36:57.637Z,36.54
2019-05-26T05:39:29.216Z,36.51
2019-05-26T05:41:58.968Z,36.51
2019-05-26T05:44:28.676Z,36.47
2019-05-26T05:46:58.388Z,36.48
2019-05-26T05:49:27.945Z,36.48
2019-05-26T05:52:02.729Z,36.47
2019-05-26T05:54:32.362Z,36.49
2019-05-26T05:57:04.657Z,36.46
2019-05-26T05:59:38.159Z,36.46
2019-05-26T06:02:10.250Z,36.46
2019-05-26T06:04:45.190Z,36.48
2019-05-26T06:07:14.745Z,36.50
2019-05-26T06:09:46.502Z,36.48
2019-05-26T06:12:16.019Z,36.47
2019-05-26T06:14:45.535Z,36.46
2019-05-26T06:17:17.376Z,36.45
2019-05-26T06:19:46.889Z,36.45
2019-05-26T06:22:18.380Z,36.43
2019-05-26T06:24:49.522Z,36.43
2019-05-26T06:27:21.333Z,36.42
2019-05-26T06:29:58.864Z,36.40
2019-05-26T06:32:23.483Z,36.42
2019-05-26T06:34:53.246Z,36.39
2019-05-26T06:37:24.877Z,36.39
2019-05-26T06:39:54.305Z,36.36
2019-05-26T06:42:26.367Z,36.36
2019-05-26T06:44:55.905Z,36.36
2019-05-26T06:47:26.903Z,36.32
2019-05-26T06:49:56.783Z,36.32
2019-05-26T06:52:26.216Z,36.32
2019-05-26T06:54:55.757Z,36.32
2019-05-26T06:57:25.404Z,36.29
2019-05-26T06:59:54.902Z,36.26
2019-05-26T07:02:24.350Z,36.31
2019-05-26T07:04:53.900Z,36.28
2019-05-26T07:07:23.368Z,36.26
2019-05-26T07:09:52.850Z,36.28
2019-05-26T07:12:22.276Z,36.24
2019-05-26T07:14:51.848Z,36.26
2019-05-26T07:17:21.337Z,36.24
2019-05-26T07:19:53.387Z,36.21
2019-05-26T07:22:22.886Z,36.17
2019-05-26T07:24:52.386Z,36.19
2019-05-26T07:27:21.968Z,36.20
2019-05-26T07:29:51.452Z,36.17
2019-05-26T07:32:21.421Z,36.17
2019-05-26T07:34:50.957Z,36.20
2019-05-26T07:37:20.404Z,36.18
2019-05-26T07:39:49.926Z,36.20
2019-05-26T07:42:19.431Z,36.18
2019-05-26T07:44:49.026Z,36.19
2019-05-26T07:47:18.652Z,36.21
2019-05-26T07:49:48.142Z,36.24
2019-05-26T07:52:17.605Z,36.25
2019-05-26T07:54:47.227Z,36.27
2019-05-26T07:57:16.740Z,36.25
2019-05-26T07:59:46.327Z,36.24
2019-05-26T08:02:15.921Z,36.26
2019-05-26T08:04:45.513Z,36.25
2019-05-26T08:07:15.024Z,36.22
2019-05-26T08:09:44.545Z,36.21
2019-05-26T08:12:25.807Z,36.22
2019-05-26T08:14:45.331Z,36.24
2019-05-26T08:17:14.970Z,36.26
2019-05-26T08:19:44.520Z,36.28
2019-05-26T08:22:14.066Z,36.30
2019-05-26T08:24:43.560Z,36.31
2019-05-26T08:27:13.094Z,36.32
2019-05-26T08:29:42.630Z,36.32
2019-05-26T08:32:14.917Z,36.36
2019-05-26T08:34:43.519Z,36.36
2019-05-26T08:37:12.977Z,36.38
2019-05-26T08:39:42.504Z,36.39
2019-05-26T08:42:26.293Z,36.40
2019-05-26T08:44:43.588Z,36.35
2019-05-26T08:47:13.181Z,36.41
2019-05-26T08:49:42.675Z,36.59
2019-05-26T08:52:14.919Z,36.95
2019-05-26T08:54:46.944Z,37.33
2019-05-26T08:57:16.420Z,37.62
2019-05-26T08:59:49.013Z,37.96
2019-05-26T09:02:18.609Z,38.11
2019-05-26T09:04:48.114Z,38.27
2019-05-26T09:07:17.689Z,38.40
2019-05-26T09:09:47.230Z,38.50
2019-05-26T09:12:16.782Z,38.54
2019-05-26T09:14:46.315Z,38.59
2019-05-26T09:17:15.904Z,38.60
2019-05-26T09:19:45.839Z,38.76
2019-05-26T09:22:15.357Z,38.94
2019-05-26T09:24:44.830Z,39.01
2019-05-26T09:27:14.367Z,39.08
2019-05-26T09:29:43.891Z,39.16
2019-05-26T09:32:13.568Z,39.22
2019-05-26T09:34:43.068Z,39.29
2019-05-26T09:37:12.608Z,39.32
2019-05-26T09:39:42.179Z,39.27
2019-05-26T09:42:11.818Z,39.22
2019-05-26T09:44:41.455Z,39.14
2019-05-26T09:47:10.984Z,39.26
2019-05-26T09:49:40.478Z,39.34
2019-05-26T09:52:10.045Z,39.24
2019-05-26T09:54:39.601Z,39.16
2019-05-26T09:57:09.122Z,39.07
2019-05-26T09:59:38.633Z,39.02
2019-05-26T10:02:08.222Z,38.93
2019-05-26T10:04:37.956Z,38.84
2019-05-26T10:07:10.768Z,38.80
2019-05-26T10:09:38.851Z,38.72
2019-05-26T10:12:08.311Z,38.66
2019-05-26T10:14:37.885Z,38.53
2019-05-26T10:17:07.729Z,38.50
2019-05-26T10:19:37.230Z,38.49
2019-05-26T10:22:06.863Z,38.38
2019-05-26T10:24:36.306Z,38.28
2019-05-26T10:27:06.006Z,38.20
2019-05-26T10:29:35.649Z,38.15
2019-05-26T10:32:05.389Z,38.14
2019-05-26T10:34:34.884Z,38.04
2019-05-26T10:37:04.538Z,37.97
2019-05-26T10:39:34.055Z,37.88
2019-05-26T10:42:06.608Z,37.83
2019-05-26T10:44:39.059Z,37.89
2019-05-26T10:47:08.587Z,37.90
2019-05-26T10:49:38.418Z,37.91
2019-05-26T10:52:08.118Z,38.01
2019-05-26T10:54:37.702Z,38.10
2019-05-26T10:57:07.252Z,38.09
2019-05-26T10:59:36.852Z,38.09
2019-05-26T11:02:06.628Z,38.13
2019-05-26T11:04:36.199Z,38.15
2019-05-26T11:07:06.006Z,38.18
2019-05-26T11:09:35.485Z,38.17
2019-05-26T11:12:05.239Z,38.16
2019-05-26T11:14:34.796Z,38.13
2019-05-26T11:17:04.324Z,38.11
2019-05-26T11:19:33.838Z,38.09
2019-05-26T11:22:03.446Z,38.07
2019-05-26T11:24:33.017Z,38.09
2019-05-26T11:27:09.817Z,38.08
2019-05-26T11:29:33.945Z,38.09
2019-05-26T11:32:03.494Z,38.16
2019-05-26T11:34:33.154Z,38.21
2019-05-26T11:37:02.643Z,38.16
2019-05-26T11:39:32.311Z,38.11
2019-05-26T11:42:12.770Z,38.08
2019-05-26T11:44:33.031Z,38.05
2019-05-26T11:47:02.728Z,38.06
2019-05-26T11:49:32.253Z,38.03
2019-05-26T11:52:01.891Z,38.00
2019-05-26T11:54:34.492Z,37.97
2019-05-26T11:57:02.689Z,37.91
2019-05-26T11:59:32.165Z,37.90
2019-05-26T12:02:01.754Z,37.86
2019-05-26T12:04:31.264Z,37.84
2019-05-26T12:07:04.369Z,37.82
2019-05-26T12:09:33.149Z,37.85
2019-05-26T12:12:03.528Z,37.91
2019-05-26T12:14:35.223Z,37.94
2019-05-26T12:17:04.586Z,37.91
2019-05-26T12:19:35.267Z,37.88
2019-05-26T12:22:04.823Z,37.86
2019-05-26T12:24:54.730Z,37.85
2019-05-26T12:27:24.218Z,37.84
2019-05-26T12:29:53.699Z,37.81
2019-05-26T12:32:23.209Z,37.79
2019-05-26T12:34:55.783Z,37.71
2019-05-26T12:37:25.306Z,37.68
2019-05-26T12:39:54.929Z,37.70
2019-05-26T12:42:24.504Z,37.68
2019-05-26T12:44:54.088Z,37.68
2019-05-26T12:47:23.674Z,37.68
2019-05-26T12:49:53.297Z,37.65
2019-05-26T12:52:22.876Z,37.60
2019-05-26T12:54:52.402Z,37.57
2019-05-26T12:57:21.860Z,37.52
2019-05-26T12:59:51.367Z,37.49
2019-05-26T13:02:20.953Z,37.49
2019-05-26T13:04:50.440Z,37.48
2019-05-26T13:07:19.903Z,37.47
2019-05-26T13:09:49.457Z,37.48
2019-05-26T13:12:22.340Z,37.50
2019-05-26T13:15:05.047Z,37.53
2019-05-26T13:17:22.979Z,37.48
2019-05-26T13:19:52.491Z,37.50
2019-05-26T13:22:22.006Z,37.48
2019-05-26T13:24:51.559Z,37.43
2019-05-26T13:27:21.097Z,37.37
2019-05-26T13:29:51.433Z,37.33
2019-05-26T13:32:21.119Z,37.42
2019-05-26T13:34:50.701Z,37.31
2019-05-26T13:37:21.702Z,37.26
2019-05-26T13:39:51.258Z,37.18
2019-05-26T13:42:20.737Z,37.20
2019-05-26T13:44:50.233Z,37.14
2019-05-26T13:47:26.112Z,37.12
2019-05-26T13:49:51.121Z,37.12
2019-05-26T13:52:20.683Z,37.13
2019-05-26T13:54:50.308Z,37.07
2019-05-26T13:57:19.883Z,37.01
2019-05-26T13:59:49.526Z,36.87
2019-05-26T14:02:21.715Z,36.86
2019-05-26T14:04:51.268Z,36.90
2019-05-26T14:07:20.758Z,36.93
2019-05-26T14:09:50.316Z,36.95
2019-05-26T14:12:19.849Z,37.03
2019-05-26T14:14:49.732Z,37.03
2019-05-26T14:17:20.945Z,37.19
2019-05-26T14:19:51.958Z,37.19
2019-05-26T14:22:21.640Z,37.23
2019-05-26T14:24:54.241Z,37.30
2019-05-26T14:27:22.546Z,37.28
2019-05-26T14:29:52.150Z,37.24
2019-05-26T14:32:21.916Z,37.33
2019-05-26T14:34:53.227Z,37.35
2019-05-26T14:37:22.785Z,37.43
2019-05-26T14:39:52.443Z,37.38
2019-05-26T14:42:21.978Z,37.24
2019-05-26T14:44:52.727Z,37.14
2019-05-26T14:47:22.340Z,37.02
2019-05-26T14:49:54.393Z,36.97
2019-05-26T14:52:23.922Z,36.89
2019-05-26T14:54:53.455Z,36.85
2019-05-26T14:57:22.932Z,36.79
2019-05-26T14:59:52.399Z,36.72
2019-05-26T15:02:21.974Z,36.66
2019-05-26T15:04:52.972Z,36.66
2019-05-26T15:07:22.518Z,36.89
2019-05-26T15:09:52.148Z,37.08
2019-05-26T15:12:21.746Z,37.21
2019-05-26T15:14:51.304Z,37.34
2019-05-26T15:17:20.953Z,37.46
2019-05-26T15:19:50.503Z,37.50
2019-05-26T15:22:20.101Z,37.70
2019-05-26T15:24:49.686Z,37.81
2019-05-26T15:27:19.217Z,37.75
2019-05-26T15:29:51.903Z,37.91
2019-05-26T15:32:22.948Z,38.06
2019-05-26T15:34:52.512Z,38.27
2019-05-26T15:37:25.062Z,38.78
2019-05-26T15:39:54.669Z,38.52
2019-05-26T15:42:24.448Z,38.59
2019-05-26T15:44:55.137Z,38.49
2019-05-26T15:47:24.849Z,38.52
2019-05-26T15:49:54.327Z,38.88
2019-05-26T15:52:24.144Z,38.92
2019-05-26T15:54:53.803Z,38.76
2019-05-26T15:57:23.371Z,38.65
2019-05-26T15:59:54.579Z,38.80
2019-05-26T16:02:24.322Z,38.88
2019-05-26T16:04:53.981Z,38.48
2019-05-26T16:07:26.098Z,38.41
2019-05-26T16:09:55.581Z,38.35
2019-05-26T16:12:25.630Z,38.38
2019-05-26T16:14:55.573Z,38.50
2019-05-26T16:17:25.078Z,38.86
2019-05-26T16:19:54.648Z,38.66
2019-05-26T16:22:25.335Z,38.52
2019-05-26T16:24:54.914Z,38.49
2019-05-26T16:27:24.423Z,38.46
2019-05-26T16:29:53.998Z,38.47
2019-05-26T16:32:23.590Z,38.47
2019-05-26T16:34:53.122Z,38.46
2019-05-26T16:37:24.050Z,38.46
2019-05-26T16:39:56.022Z,38.59
2019-05-26T16:42:25.503Z,38.54
2019-05-26T16:44:55.100Z,38.59
2019-05-26T16:47:24.647Z,38.71
2019-05-26T16:49:54.374Z,38.68
2019-05-26T16:52:23.903Z,38.69
2019-05-26T16:54:53.365Z,38.71
2019-05-26T16:57:23.345Z,38.78
2019-05-26T16:59:52.846Z,38.85
2019-05-26T17:02:22.445Z,38.92
2019-05-26T17:04:51.956Z,39.21
2019-05-26T17:07:21.530Z,39.56
2019-05-26T17:09:51.151Z,39.56
2019-05-26T17:12:20.837Z,39.32
2019-05-26T17:14:50.497Z,39.20
2019-05-26T17:17:20.054Z,39.17
2019-05-26T17:19:52.640Z,39.12
2019-05-26T17:22:20.890Z,39.10
2019-05-26T17:24:50.459Z,39.08
2019-05-26T17:27:22.208Z,39.01
2019-05-26T17:29:52.049Z,39.02
2019-05-26T17:32:21.621Z,38.97
2019-05-26T17:34:51.115Z,38.92
2019-05-26T17:37:20.716Z,38.92
2019-05-26T17:39:50.576Z,38.89
2019-05-26T17:42:20.551Z,38.81
2019-05-26T17:44:50.087Z,38.75
2019-05-26T17:47:29.870Z,38.71
2019-05-26T17:49:51.012Z,38.70
2019-05-26T17:52:20.673Z,38.63
2019-05-26T17:54:50.153Z,38.60
2019-05-26T17:57:19.621Z,38.59
2019-05-26T17:59:49.727Z,38.60
2019-05-26T18:02:19.257Z,38.57
2019-05-26T18:04:48.838Z,38.55
2019-05-26T18:07:18.544Z,38.51
2019-05-26T18:09:48.111Z,38.51
2019-05-26T18:12:24.507Z,38.50
2019-05-26T18:14:55.975Z,38.47
2019-05-26T18:17:25.664Z,38.46
2019-05-26T18:19:55.266Z,38.45
2019-05-26T18:22:24.882Z,38.42
2019-05-26T18:24:58.141Z,38.40
2019-05-26T18:27:26.633Z,38.35
2019-05-26T18:29:56.205Z,38.36
2019-05-26T18:32:25.890Z,38.33
2019-05-26T18:34:55.436Z,38.34
2019-05-26T18:37:25.026Z,38.32
2019-05-26T18:39:54.593Z,38.31
2019-05-26T18:42:24.127Z,38.28
2019-05-26T18:44:53.603Z,38.29
2019-05-26T18:47:23.074Z,38.26
2019-05-26T18:49:52.946Z,38.26
2019-05-26T18:52:22.496Z,38.25
2019-05-26T18:54:52.502Z,38.22
2019-05-26T18:57:23.154Z,38.20
2019-05-26T18:59:52.911Z,38.20
2019-05-26T19:02:22.877Z,38.18
2019-05-26T19:04:52.572Z,38.18
2019-05-26T19:07:22.274Z,38.16
2019-05-26T19:09:51.757Z,38.13
2019-05-26T19:12:23.524Z,38.14
2019-05-26T19:14:53.076Z,38.13
2019-05-26T19:17:22.693Z,38.11
2019-05-26T19:19:52.480Z,38.09
2019-05-26T19:22:22.090Z,38.10
2019-05-26T19:24:51.986Z,38.06
2019-05-26T19:27:21.680Z,38.05
2019-05-26T19:29:51.774Z,38.03
2019-05-26T19:32:22.190Z,38.00
2019-05-26T19:34:52.098Z,37.96
2019-05-26T19:37:22.007Z,37.92
2019-05-26T19:39:51.712Z,37.88
2019-05-26T19:42:21.282Z,37.83
2019-05-26T19:44:50.859Z,37.81
2019-05-26T19:47:20.490Z,37.76
2019-05-26T19:49:50.038Z,37.78
2019-05-26T19:52:19.798Z,38.61
2019-05-26T19:54:51.365Z,39.37
2019-05-26T19:57:21.438Z,40.30
2019-05-26T19:59:51.300Z,40.99
2019-05-26T20:02:21.099Z,41.30
2019-05-26T20:04:50.906Z,41.64
2019-05-26T20:07:20.425Z,41.80
2019-05-26T20:09:50.039Z,41.99
2019-05-26T20:12:19.655Z,42.18
2019-05-26T20:14:49.167Z,42.52
2019-05-26T20:17:18.828Z,42.73
2019-05-26T20:19:48.283Z,42.88
2019-05-26T20:22:18.593Z,43.15
2019-05-26T20:24:48.174Z,43.23
2019-05-26T20:27:17.682Z,43.29
2019-05-26T20:29:48.695Z,43.39
2019-05-26T20:32:18.323Z,43.40
2019-05-26T20:34:47.935Z,43.42
2019-05-26T20:37:17.389Z,43.45
2019-05-26T20:39:47.070Z,43.42
2019-05-26T20:42:16.587Z,43.44
2019-05-26T20:44:46.188Z,43.46
2019-05-26T20:47:15.666Z,43.44
2019-05-26T20:49:46.063Z,43.44
2019-05-26T20:52:20.587Z,43.36
2019-05-26T20:54:50.091Z,43.38
2019-05-26T20:57:21.491Z,43.37
2019-05-26T20:59:51.113Z,43.37
2019-05-26T21:02:20.603Z,43.37
2019-05-26T21:04:50.126Z,43.42
2019-05-26T21:07:20.611Z,43.47
2019-05-26T21:09:50.159Z,43.42
2019-05-26T21:12:19.791Z,43.42
2019-05-26T21:14:49.418Z,43.38
2019-05-26T21:17:21.433Z,43.38
2019-05-26T21:19:51.041Z,43.35
2019-05-26T21:22:20.583Z,43.33
2019-05-26T21:24:50.190Z,43.34
2019-05-26T21:27:20.105Z,43.29
2019-05-26T21:29:49.654Z,43.29
2019-05-26T21:32:19.305Z,43.29
2019-05-26T21:34:49.770Z,43.24
2019-05-26T21:37:19.468Z,43.24
2019-05-26T21:39:49.027Z,43.24
2019-05-26T21:42:18.502Z,43.31
2019-05-26T21:44:48.238Z,43.33
2019-05-26T21:47:17.720Z,43.40
2019-05-26T21:49:49.802Z,43.50
2019-05-26T21:52:19.427Z,43.52
2019-05-26T21:54:49.020Z,43.54
2019-05-26T21:57:18.563Z,43.59
2019-05-26T21:59:48.055Z,43.64
2019-05-26T22:02:17.592Z,43.65
2019-05-26T22:04:47.048Z,43.68
2019-05-26T22:07:16.600Z,43.73
2019-05-26T22:09:46.089Z,43.73
2019-05-26T22:12:15.902Z,43.72
2019-05-26T22:14:45.571Z,43.70
2019-05-26T22:17:15.073Z,43.68
2019-05-26T22:19:44.628Z,43.65
2019-05-26T22:22:14.187Z,43.57
2019-05-26T22:24:43.735Z,43.53
2019-05-26T22:27:13.176Z,43.52
2019-05-26T22:29:42.721Z,43.51
2019-05-26T22:32:12.317Z,43.47
2019-05-26T22:34:41.854Z,43.48
2019-05-26T22:37:11.361Z,43.39
2019-05-26T22:39:40.910Z,43.29
2019-05-26T22:42:10.590Z,43.24
2019-05-26T22:44:40.038Z,43.17
2019-05-26T22:47:09.620Z,43.12
2019-05-26T22:49:39.110Z,43.04
2019-05-26T22:52:08.714Z,42.98
2019-05-26T22:54:38.356Z,42.96
2019-05-26T22:57:07.880Z,42.90
2019-05-26T22:59:37.366Z,42.83
2019-05-26T23:02:07.011Z,42.78
2019-05-26T23:04:36.569Z,42.68
2019-05-26T23:07:06.153Z,42.58
2019-05-26T23:09:35.742Z,42.47
2019-05-26T23:12:05.201Z,42.37
2019-05-26T23:14:34.733Z,42.25
2019-05-26T23:17:04.358Z,42.15
2019-05-26T23:19:33.887Z,42.03
2019-05-26T23:22:03.415Z,41.94
2019-05-26T23:24:33.040Z,41.82
2019-05-26T23:27:02.564Z,41.68
2019-05-26T23:29:32.265Z,41.58
2019-05-26T23:32:01.803Z,41.47
2019-05-26T23:34:31.298Z,41.37
2019-05-26T23:37:00.780Z,41.27
2019-05-26T23:39:30.383Z,41.13
2019-05-26T23:42:00.053Z,41.05
2019-05-26T23:44:29.517Z,40.95
2019-05-26T23:46:59.148Z,40.86
2019-05-26T23:49:28.602Z,40.70
2019-05-26T23:51:58.106Z,40.65
2019-05-26T23:54:27.908Z,40.56
2019-05-26T23:56:57.337Z,40.49
2019-05-26T23:59:26.909Z,40.43
